Terminal Aerodrome Forecast
Issued by NWS Louisville, KY

Home | Current Version | Previous Version | Text Only | Print | Product List | Glossary On
Versions: 1 2 3 4 5 6 7 8 9 10 11 12 13 14 15 16
130
FTUS43 KLMK 271127
TAFBWG
TAF
KBWG 271127Z 2712/2812 19006KT P6SM VCSH FEW035 SCT090
      TEMPO 2712/2713 2SM BR
     FM272000 19010KT P6SM -SHRA VCTS BKN035CB
     FM280200 VRB04KT P6SM SCT050 BKN150=

USA.gov is the U.S. government's official web portal to all federal, state and local government web resources and services.